sensor_id;sensor_type;location;lat;lon;timestamp;pressure;altitude;pressure_sealevel;temperature;humidity
55291;BME280;41155;39.768;2.712;2023-05-07T00:02:20;101070.28;;;21.01;54.03
55291;BME280;41155;39.768;2.712;2023-05-07T00:04:46;101075.75;;;21.01;54.08
55291;BME280;41155;39.768;2.712;2023-05-07T00:07:12;101038.53;;;20.49;54.36
55291;BME280;41155;39.768;2.712;2023-05-07T00:09:37;101074.13;;;20.54;54.67
55291;BME280;41155;39.768;2.712;2023-05-07T00:12:02;101074.19;;;20.63;54.48
55291;BME280;41155;39.768;2.712;2023-05-07T00:14:28;101084.00;;;20.78;54.02
55291;BME280;41155;39.768;2.712;2023-05-07T00:16:53;101098.22;;;20.80;54.08
55291;BME280;41155;39.768;2.712;2023-05-07T00:19:19;101077.56;;;20.46;55.01
55291;BME280;41155;39.768;2.712;2023-05-07T00:21:44;101090.25;;;20.42;54.57
55291;BME280;41155;39.768;2.712;2023-05-07T00:24:10;101031.53;;;20.07;53.33
55291;BME280;41155;39.768;2.712;2023-05-07T00:26:35;101097.38;;;20.43;52.43
55291;BME280;41155;39.768;2.712;2023-05-07T00:29:01;101109.84;;;20.49;51.97
55291;BME280;41155;39.768;2.712;2023-05-07T00:31:26;101117.38;;;20.44;54.02
55291;BME280;41155;39.768;2.712;2023-05-07T00:33:52;101121.84;;;20.53;57.63
55291;BME280;41155;39.768;2.712;2023-05-07T00:36:17;101137.78;;;20.65;58.38
55291;BME280;41155;39.768;2.712;2023-05-07T00:38:43;101147.09;;;20.78;57.58
55291;BME280;41155;39.768;2.712;2023-05-07T00:41:08;101109.28;;;20.52;56.87
55291;BME280;41155;39.768;2.712;2023-05-07T00:43:33;101155.16;;;20.97;57.18
55291;BME280;41155;39.768;2.712;2023-05-07T00:45:59;101154.88;;;20.98;57.26
55291;BME280;41155;39.768;2.712;2023-05-07T00:48:25;101127.41;;;20.98;57.12
55291;BME280;41155;39.768;2.712;2023-05-07T00:50:51;101153.88;;;21.17;57.46
55291;BME280;41155;39.768;2.712;2023-05-07T00:53:17;101160.22;;;21.26;58.05
55291;BME280;41155;39.768;2.712;2023-05-07T00:55:42;101156.13;;;21.37;58.53
55291;BME280;41155;39.768;2.712;2023-05-07T00:58:08;101139.66;;;21.37;59.50
55291;BME280;41155;39.768;2.712;2023-05-07T01:00:33;101093.59;;;21.12;60.14
55291;BME280;41155;39.768;2.712;2023-05-07T01:02:59;101130.91;;;21.35;60.84
55291;BME280;41155;39.768;2.712;2023-05-07T01:05:26;101116.66;;;21.33;61.74
55291;BME280;41155;39.768;2.712;2023-05-07T01:07:56;101116.75;;;21.42;61.70
55291;BME280;41155;39.768;2.712;2023-05-07T01:10:23;101128.59;;;21.29;62.45
55291;BME280;41155;39.768;2.712;2023-05-07T01:12:50;101136.13;;;21.23;63.23
55291;BME280;41155;39.768;2.712;2023-05-07T01:15:16;101132.53;;;21.14;63.70
55291;BME280;41155;39.768;2.712;2023-05-07T01:17:42;101135.28;;;21.14;63.49
55291;BME280;41155;39.768;2.712;2023-05-07T01:20:08;101122.84;;;21.16;63.14
55291;BME280;41155;39.768;2.712;2023-05-07T01:22:38;101123.81;;;21.12;62.88
55291;BME280;41155;39.768;2.712;2023-05-07T01:25:07;101130.06;;;21.35;62.56
55291;BME280;41155;39.768;2.712;2023-05-07T01:27:33;101139.19;;;20.99;64.80
55291;BME280;41155;39.768;2.712;2023-05-07T01:30:00;101124.03;;;21.02;63.86
55291;BME280;41155;39.768;2.712;2023-05-07T01:32:40;101143.16;;;21.07;64.13
55291;BME280;41155;39.768;2.712;2023-05-07T01:35:11;101139.53;;;20.97;64.40
55291;BME280;41155;39.768;2.712;2023-05-07T01:37:38;101135.09;;;21.10;64.15
55291;BME280;41155;39.768;2.712;2023-05-07T01:40:04;101129.66;;;21.19;63.88
55291;BME280;41155;39.768;2.712;2023-05-07T01:42:30;101118.44;;;21.29;63.50
55291;BME280;41155;39.768;2.712;2023-05-07T01:44:56;101126.78;;;21.02;64.71
55291;BME280;41155;39.768;2.712;2023-05-07T01:47:22;101117.56;;;20.97;64.71
55291;BME280;41155;39.768;2.712;2023-05-07T01:49:48;101121.59;;;21.00;64.51
55291;BME280;41155;39.768;2.712;2023-05-07T01:52:14;101119.81;;;20.95;64.90
55291;BME280;41155;39.768;2.712;2023-05-07T01:54:39;101123.88;;;20.98;64.62
55291;BME280;41155;39.768;2.712;2023-05-07T01:57:04;101124.16;;;20.96;64.69
55291;BME280;41155;39.768;2.712;2023-05-07T01:59:30;101122.44;;;21.01;64.52
55291;BME280;41155;39.768;2.712;2023-05-07T02:01:56;101107.06;;;20.99;64.10
55291;BME280;41155;39.768;2.712;2023-05-07T02:04:21;101121.47;;;21.05;64.16
55291;BME280;41155;39.768;2.712;2023-05-07T02:06:47;101110.44;;;20.96;63.86
55291;BME280;41155;39.768;2.712;2023-05-07T02:09:13;101115.38;;;21.08;63.74
55291;BME280;41155;39.768;2.712;2023-05-07T02:11:39;101104.03;;;21.01;63.66
55291;BME280;41155;39.768;2.712;2023-05-07T02:14:05;101106.19;;;20.90;63.91
55291;BME280;41155;39.768;2.712;2023-05-07T02:16:31;101104.69;;;20.84;64.28
55291;BME280;41155;39.768;2.712;2023-05-07T02:18:56;101105.94;;;20.78;64.22
55291;BME280;41155;39.768;2.712;2023-05-07T02:21:23;101095.66;;;20.84;64.09
55291;BME280;41155;39.768;2.712;2023-05-07T02:23:48;101082.84;;;20.79;64.13
55291;BME280;41155;39.768;2.712;2023-05-07T02:26:14;101084.38;;;20.63;64.78
55291;BME280;41155;39.768;2.712;2023-05-07T02:28:39;101079.28;;;20.42;65.42
55291;BME280;41155;39.768;2.712;2023-05-07T02:31:05;101075.78;;;20.28;66.13
55291;BME280;41155;39.768;2.712;2023-05-07T02:33:31;101077.28;;;20.34;65.60
55291;BME280;41155;39.768;2.712;2023-05-07T02:35:56;101071.38;;;20.41;65.69
55291;BME280;41155;39.768;2.712;2023-05-07T02:38:22;101041.97;;;20.19;65.41
55291;BME280;41155;39.768;2.712;2023-05-07T02:40:48;101071.13;;;20.15;65.74
55291;BME280;41155;39.768;2.712;2023-05-07T02:43:14;101075.09;;;20.22;65.63
55291;BME280;41155;39.768;2.712;2023-05-07T02:45:39;101075.78;;;20.28;65.56
55291;BME280;41155;39.768;2.712;2023-05-07T02:48:05;101075.59;;;20.11;65.66
55291;BME280;41155;39.768;2.712;2023-05-07T02:50:33;101104.72;;;20.20;65.63
55291;BME280;41155;39.768;2.712;2023-05-07T02:52:59;101069.19;;;20.01;65.44
55291;BME280;41155;39.768;2.712;2023-05-07T02:55:24;101092.34;;;20.09;65.09
55291;BME280;41155;39.768;2.712;2023-05-07T02:57:50;101121.69;;;20.22;65.28
55291;BME280;41155;39.768;2.712;2023-05-07T03:00:17;101124.34;;;20.14;65.11
55291;BME280;41155;39.768;2.712;2023-05-07T03:02:44;101121.09;;;19.98;65.53
55291;BME280;41155;39.768;2.712;2023-05-07T03:05:10;101110.94;;;19.05;68.94
55291;BME280;41155;39.768;2.712;2023-05-07T03:07:37;101126.22;;;19.06;69.00
55291;BME280;41155;39.768;2.712;2023-05-07T03:10:03;101113.94;;;19.23;68.50
55291;BME280;41155;39.768;2.712;2023-05-07T03:12:29;101119.81;;;18.59;71.22
55291;BME280;41155;39.768;2.712;2023-05-07T03:14:55;101110.31;;;18.33;73.20
55291;BME280;41155;39.768;2.712;2023-05-07T03:17:20;101103.84;;;18.47;71.71
55291;BME280;41155;39.768;2.712;2023-05-07T03:19:46;101116.94;;;18.88;70.40
55291;BME280;41155;39.768;2.712;2023-05-07T03:22:11;101123.34;;;18.97;69.71
55291;BME280;41155;39.768;2.712;2023-05-07T03:24:37;101124.63;;;19.05;69.55
55291;BME280;41155;39.768;2.712;2023-05-07T03:27:02;101130.81;;;19.11;69.27
55291;BME280;41155;39.768;2.712;2023-05-07T03:29:28;101135.31;;;19.20;68.45
55291;BME280;41155;39.768;2.712;2023-05-07T03:31:53;101134.13;;;19.27;67.79
55291;BME280;41155;39.768;2.712;2023-05-07T03:34:19;101108.41;;;19.09;67.33
55291;BME280;41155;39.768;2.712;2023-05-07T03:36:48;101134.69;;;18.91;67.07
55291;BME280;41155;39.768;2.712;2023-05-07T03:39:14;101116.94;;;18.88;66.55
55291;BME280;41155;39.768;2.712;2023-05-07T03:41:39;101137.09;;;19.11;66.55
55291;BME280;41155;39.768;2.712;2023-05-07T03:44:05;101142.13;;;19.23;66.18
55291;BME280;41155;39.768;2.712;2023-05-07T03:46:31;101149.38;;;19.33;65.98
55291;BME280;41155;39.768;2.712;2023-05-07T03:48:58;101150.44;;;19.51;66.06
55291;BME280;41155;39.768;2.712;2023-05-07T03:51:23;101139.69;;;19.22;66.10
55291;BME280;41155;39.768;2.712;2023-05-07T03:53:50;101159.06;;;19.06;66.88
55291;BME280;41155;39.768;2.712;2023-05-07T03:56:18;101150.19;;;18.58;68.75
55291;BME280;41155;39.768;2.712;2023-05-07T03:58:43;101164.19;;;18.94;67.55
55291;BME280;41155;39.768;2.712;2023-05-07T04:01:09;101167.81;;;19.08;66.51
55291;BME280;41155;39.768;2.712;2023-05-07T04:03:34;101174.69;;;19.25;65.62
55291;BME280;41155;39.768;2.712;2023-05-07T04:06:00;101173.47;;;19.31;65.32
55291;BME280;41155;39.768;2.712;2023-05-07T04:08:25;101183.84;;;19.34;65.41
55291;BME280;41155;39.768;2.712;2023-05-07T04:10:55;101176.03;;;19.41;65.35
55291;BME280;41155;39.768;2.712;2023-05-07T04:13:20;101179.81;;;19.45;64.54
55291;BME280;41155;39.768;2.712;2023-05-07T04:15:46;101200.69;;;19.41;64.90
55291;BME280;41155;39.768;2.712;2023-05-07T04:18:11;101189.09;;;19.30;65.03
55291;BME280;41155;39.768;2.712;2023-05-07T04:20:37;101199.31;;;19.06;66.00
55291;BME280;41155;39.768;2.712;2023-05-07T04:23:02;101174.13;;;18.47;68.03
55291;BME280;41155;39.768;2.712;2023-05-07T04:25:28;101155.47;;;18.30;68.42
55291;BME280;41155;39.768;2.712;2023-05-07T04:27:53;101204.72;;;18.49;68.28
55291;BME280;41155;39.768;2.712;2023-05-07T04:30:19;101204.00;;;18.62;67.60
55291;BME280;41155;39.768;2.712;2023-05-07T04:32:47;101205.53;;;18.73;67.26
55291;BME280;41155;39.768;2.712;2023-05-07T04:35:13;101209.59;;;18.76;66.94
55291;BME280;41155;39.768;2.712;2023-05-07T04:37:39;101208.13;;;18.84;66.32
55291;BME280;41155;39.768;2.712;2023-05-07T04:40:05;101203.63;;;18.93;65.19
55291;BME280;41155;39.768;2.712;2023-05-07T04:42:31;101196.91;;;19.04;64.66
55291;BME280;41155;39.768;2.712;2023-05-07T04:44:57;101192.97;;;19.10;64.98
55291;BME280;41155;39.768;2.712;2023-05-07T04:47:22;101192.91;;;19.15;65.11
55291;BME280;41155;39.768;2.712;2023-05-07T04:49:48;101190.16;;;19.15;65.15
55291;BME280;41155;39.768;2.712;2023-05-07T04:52:13;101183.94;;;19.10;65.22
55291;BME280;41155;39.768;2.712;2023-05-07T04:54:39;101186.03;;;19.18;65.07
55291;BME280;41155;39.768;2.712;2023-05-07T04:57:04;101187.16;;;19.31;64.45
55291;BME280;41155;39.768;2.712;2023-05-07T04:59:30;101153.59;;;19.06;64.39
55291;BME280;41155;39.768;2.712;2023-05-07T05:01:55;101176.34;;;19.07;64.49
55291;BME280;41155;39.768;2.712;2023-05-07T05:04:21;101171.00;;;19.15;64.07
55291;BME280;41155;39.768;2.712;2023-05-07T05:06:46;101169.81;;;18.41;66.00
55291;BME280;41155;39.768;2.712;2023-05-07T05:09:12;101168.28;;;18.53;65.05
55291;BME280;41155;39.768;2.712;2023-05-07T05:11:38;101160.94;;;18.30;65.12
55291;BME280;41155;39.768;2.712;2023-05-07T05:14:04;101170.56;;;18.46;64.41
55291;BME280;41155;39.768;2.712;2023-05-07T05:16:29;101168.22;;;18.59;63.67
55291;BME280;41155;39.768;2.712;2023-05-07T05:18:54;101168.91;;;18.69;63.29
55291;BME280;41155;39.768;2.712;2023-05-07T05:21:20;101166.97;;;18.70;63.50
55291;BME280;41155;39.768;2.712;2023-05-07T05:23:46;101171.22;;;18.81;63.23
55291;BME280;41155;39.768;2.712;2023-05-07T05:26:12;101163.16;;;18.90;63.54
55291;BME280;41155;39.768;2.712;2023-05-07T05:28:37;101163.00;;;19.00;64.41
55291;BME280;41155;39.768;2.712;2023-05-07T05:31:04;101162.34;;;19.08;63.96
55291;BME280;41155;39.768;2.712;2023-05-07T05:33:30;101162.69;;;19.20;63.98
55291;BME280;41155;39.768;2.712;2023-05-07T05:35:55;101148.81;;;18.98;64.44
55291;BME280;41155;39.768;2.712;2023-05-07T05:38:21;101156.50;;;18.96;64.32
55291;BME280;41155;39.768;2.712;2023-05-07T05:40:46;101152.13;;;18.33;65.05
55291;BME280;41155;39.768;2.712;2023-05-07T05:43:13;101165.75;;;18.38;64.25
55291;BME280;41155;39.768;2.712;2023-05-07T05:45:38;101163.50;;;18.21;63.71
55291;BME280;41155;39.768;2.712;2023-05-07T05:48:04;101162.53;;;18.55;61.40
55291;BME280;41155;39.768;2.712;2023-05-07T05:50:29;101168.66;;;18.66;61.01
55291;BME280;41155;39.768;2.712;2023-05-07T05:52:55;101170.41;;;18.81;61.33
55291;BME280;41155;39.768;2.712;2023-05-07T05:55:21;101176.53;;;18.91;62.22
55291;BME280;41155;39.768;2.712;2023-05-07T05:57:47;101188.09;;;19.07;63.33
55291;BME280;41155;39.768;2.712;2023-05-07T06:00:13;101194.59;;;19.11;64.21
55291;BME280;41155;39.768;2.712;2023-05-07T06:02:39;101189.84;;;19.17;64.27
55291;BME280;41155;39.768;2.712;2023-05-07T06:05:04;101189.09;;;19.30;64.15
55291;BME280;41155;39.768;2.712;2023-05-07T06:07:30;101193.78;;;19.30;64.16
55291;BME280;41155;39.768;2.712;2023-05-07T06:09:55;101195.53;;;19.39;63.93
55291;BME280;41155;39.768;2.712;2023-05-07T06:12:21;101189.44;;;19.42;63.56
55291;BME280;41155;39.768;2.712;2023-05-07T06:14:46;101202.88;;;19.58;63.32
55291;BME280;41155;39.768;2.712;2023-05-07T06:17:12;101218.88;;;19.70;62.05
55291;BME280;41155;39.768;2.712;2023-05-07T06:19:38;101216.78;;;19.80;61.35
55291;BME280;41155;39.768;2.712;2023-05-07T06:22:03;101204.88;;;19.19;61.62
55291;BME280;41155;39.768;2.712;2023-05-07T06:24:29;101209.97;;;19.26;61.39
55291;BME280;41155;39.768;2.712;2023-05-07T06:26:54;101215.16;;;19.28;61.74
55291;BME280;41155;39.768;2.712;2023-05-07T06:29:20;101221.03;;;19.54;60.75
55291;BME280;41155;39.768;2.712;2023-05-07T06:31:45;101214.78;;;19.67;59.18
55291;BME280;41155;39.768;2.712;2023-05-07T06:34:11;101205.13;;;19.56;58.50
55291;BME280;41155;39.768;2.712;2023-05-07T06:36:40;101216.38;;;19.54;59.49
55291;BME280;41155;39.768;2.712;2023-05-07T06:39:06;101218.25;;;19.73;59.19
55291;BME280;41155;39.768;2.712;2023-05-07T06:41:31;101194.84;;;19.80;57.18
55291;BME280;41155;39.768;2.712;2023-05-07T06:43:57;101208.38;;;20.04;56.15
55291;BME280;41155;39.768;2.712;2023-05-07T06:46:22;101211.75;;;20.15;55.18
55291;BME280;41155;39.768;2.712;2023-05-07T06:48:47;101214.09;;;20.36;55.94
55291;BME280;41155;39.768;2.712;2023-05-07T06:51:13;101213.75;;;20.51;54.97
55291;BME280;41155;39.768;2.712;2023-05-07T06:53:38;101212.28;;;20.59;55.00
55291;BME280;41155;39.768;2.712;2023-05-07T06:56:04;101209.41;;;20.77;52.82
55291;BME280;41155;39.768;2.712;2023-05-07T06:58:30;101222.19;;;20.96;52.04
55291;BME280;41155;39.768;2.712;2023-05-07T07:00:55;101222.25;;;21.05;51.76
55291;BME280;41155;39.768;2.712;2023-05-07T07:03:21;101223.47;;;21.12;51.49
55291;BME280;41155;39.768;2.712;2023-05-07T07:05:46;101221.47;;;21.27;49.51
55291;BME280;41155;39.768;2.712;2023-05-07T07:08:12;101231.00;;;21.43;48.86
55291;BME280;41155;39.768;2.712;2023-05-07T07:10:37;101224.25;;;21.49;48.03
55291;BME280;41155;39.768;2.712;2023-05-07T07:13:02;101246.09;;;21.77;47.32
55291;BME280;41155;39.768;2.712;2023-05-07T07:15:28;101243.44;;;21.94;46.53
55291;BME280;41155;39.768;2.712;2023-05-07T07:17:54;101242.81;;;21.97;46.41
55291;BME280;41155;39.768;2.712;2023-05-07T07:20:19;101246.59;;;22.10;45.87
55291;BME280;41155;39.768;2.712;2023-05-07T07:22:45;101250.47;;;22.31;44.53
55291;BME280;41155;39.768;2.712;2023-05-07T07:25:10;101247.91;;;22.44;44.29
55291;BME280;41155;39.768;2.712;2023-05-07T07:27:37;101249.88;;;22.52;44.48
55291;BME280;41155;39.768;2.712;2023-05-07T07:30:03;101256.91;;;22.75;43.50
55291;BME280;41155;39.768;2.712;2023-05-07T07:32:28;101253.69;;;22.91;42.49
55291;BME280;41155;39.768;2.712;2023-05-07T07:34:54;101262.59;;;22.88;43.07
55291;BME280;41155;39.768;2.712;2023-05-07T07:37:19;101258.94;;;23.10;42.01
55291;BME280;41155;39.768;2.712;2023-05-07T07:39:45;101259.44;;;23.29;40.54
55291;BME280;41155;39.768;2.712;2023-05-07T07:42:10;101262.34;;;23.50;39.00
55291;BME280;41155;39.768;2.712;2023-05-07T07:44:36;101243.72;;;23.38;38.56
55291;BME280;41155;39.768;2.712;2023-05-07T07:47:01;101256.19;;;23.53;38.12
55291;BME280;41155;39.768;2.712;2023-05-07T07:49:27;101257.00;;;23.45;37.96
55291;BME280;41155;39.768;2.712;2023-05-07T07:51:52;101262.34;;;23.50;36.45
55291;BME280;41155;39.768;2.712;2023-05-07T07:54:18;101264.13;;;23.29;36.39
55291;BME280;41155;39.768;2.712;2023-05-07T07:56:43;101272.88;;;23.13;38.06
55291;BME280;41155;39.768;2.712;2023-05-07T07:59:09;101249.06;;;23.09;38.60
55291;BME280;41155;39.768;2.712;2023-05-07T08:01:34;101264.44;;;23.10;37.31
55291;BME280;41155;39.768;2.712;2023-05-07T08:04:00;101277.75;;;23.25;38.64
55291;BME280;41155;39.768;2.712;2023-05-07T08:06:28;101255.84;;;23.20;38.25
55291;BME280;41155;39.768;2.712;2023-05-07T08:08:54;101271.59;;;23.45;37.89
55291;BME280;41155;39.768;2.712;2023-05-07T08:11:19;101275.31;;;23.58;38.21
55291;BME280;41155;39.768;2.712;2023-05-07T08:13:46;101278.25;;;23.71;38.89
55291;BME280;41155;39.768;2.712;2023-05-07T08:16:12;101279.38;;;23.78;38.72
55291;BME280;41155;39.768;2.712;2023-05-07T08:18:38;101281.00;;;23.79;38.34
55291;BME280;41155;39.768;2.712;2023-05-07T08:21:03;101279.19;;;23.83;39.01
55291;BME280;41155;39.768;2.712;2023-05-07T08:23:29;101283.06;;;23.91;39.27
55291;BME280;41155;39.768;2.712;2023-05-07T08:25:54;101289.38;;;24.00;39.36
55291;BME280;41155;39.768;2.712;2023-05-07T08:28:20;101286.28;;;24.10;39.56
55291;BME280;41155;39.768;2.712;2023-05-07T08:30:46;101272.47;;;24.19;38.92
55291;BME280;41155;39.768;2.712;2023-05-07T08:33:12;101289.25;;;24.44;38.34
55291;BME280;41155;39.768;2.712;2023-05-07T08:35:37;101283.44;;;24.75;36.53
55291;BME280;41155;39.768;2.712;2023-05-07T08:38:03;101268.34;;;24.72;36.39
55291;BME280;41155;39.768;2.712;2023-05-07T08:40:29;101287.19;;;25.00;35.30
55291;BME280;41155;39.768;2.712;2023-05-07T08:43:00;101274.44;;;25.08;34.91
55291;BME280;41155;39.768;2.712;2023-05-07T08:45:27;101268.44;;;25.14;32.31
55291;BME280;41155;39.768;2.712;2023-05-07T08:47:58;101276.59;;;25.32;32.76
55291;BME280;41155;39.768;2.712;2023-05-07T08:50:24;101273.13;;;25.56;31.86
55291;BME280;41155;39.768;2.712;2023-05-07T08:52:50;101258.13;;;25.78;31.85
55291;BME280;41155;39.768;2.712;2023-05-07T08:55:16;101274.56;;;25.95;31.28
55291;BME280;41155;39.768;2.712;2023-05-07T08:57:42;101273.28;;;26.05;30.59
55291;BME280;41155;39.768;2.712;2023-05-07T09:00:08;101273.78;;;26.07;31.05
55291;BME280;41155;39.768;2.712;2023-05-07T09:02:35;101255.56;;;25.73;30.08
55291;BME280;41155;39.768;2.712;2023-05-07T09:05:01;101268.94;;;25.50;29.69
55291;BME280;41155;39.768;2.712;2023-05-07T09:07:27;101274.22;;;25.76;29.46
55291;BME280;41155;39.768;2.712;2023-05-07T09:09:52;101260.56;;;25.58;29.78
55291;BME280;41155;39.768;2.712;2023-05-07T09:12:21;101251.72;;;25.65;30.27
55291;BME280;41155;39.768;2.712;2023-05-07T09:14:46;101249.16;;;25.60;31.43
55291;BME280;41155;39.768;2.712;2023-05-07T09:17:12;101260.94;;;25.36;31.88
55291;BME280;41155;39.768;2.712;2023-05-07T09:19:38;101286.88;;;25.22;31.49
55291;BME280;41155;39.768;2.712;2023-05-07T09:22:05;101284.13;;;24.93;35.67
55291;BME280;41155;39.768;2.712;2023-05-07T09:24:32;101287.72;;;24.64;36.60
55291;BME280;41155;39.768;2.712;2023-05-07T09:27:06;101302.09;;;24.48;38.76
55291;BME280;41155;39.768;2.712;2023-05-07T09:29:33;101295.84;;;24.60;39.09
55291;BME280;41155;39.768;2.712;2023-05-07T09:32:07;101273.53;;;24.27;38.82
55291;BME280;41155;39.768;2.712;2023-05-07T09:34:34;101301.47;;;24.34;39.58
55291;BME280;41155;39.768;2.712;2023-05-07T09:37:04;101311.13;;;24.57;39.71
55291;BME280;41155;39.768;2.712;2023-05-07T09:39:49;101312.97;;;24.45;40.32
55291;BME280;41155;39.768;2.712;2023-05-07T09:42:14;101316.69;;;24.40;41.34
55291;BME280;41155;39.768;2.712;2023-05-07T09:44:41;101315.81;;;24.19;42.79
55291;BME280;41155;39.768;2.712;2023-05-07T09:47:08;101328.13;;;24.12;43.94
55291;BME280;41155;39.768;2.712;2023-05-07T09:49:36;101333.22;;;23.93;44.45
55291;BME280;41155;39.768;2.712;2023-05-07T09:52:04;101342.47;;;23.80;45.82
55291;BME280;41155;39.768;2.712;2023-05-07T09:54:32;101354.44;;;23.66;48.65
55291;BME280;41155;39.768;2.712;2023-05-07T09:56:59;101364.81;;;23.61;49.22
55291;BME280;41155;39.768;2.712;2023-05-07T09:59:27;101374.56;;;23.58;50.53
55291;BME280;41155;39.768;2.712;2023-05-07T10:01:57;101378.59;;;23.61;50.89
55291;BME280;41155;39.768;2.712;2023-05-07T10:04:25;101385.09;;;23.65;52.00
55291;BME280;41155;39.768;2.712;2023-05-07T10:06:51;101388.16;;;23.63;53.41
55291;BME280;41155;39.768;2.712;2023-05-07T10:09:17;101384.44;;;23.59;53.33
55291;BME280;41155;39.768;2.712;2023-05-07T10:11:43;101385.56;;;23.50;53.19
55291;BME280;41155;39.768;2.712;2023-05-07T10:14:10;101380.06;;;23.50;53.72
55291;BME280;41155;39.768;2.712;2023-05-07T10:16:36;101388.13;;;23.37;56.00
55291;BME280;41155;39.768;2.712;2023-05-07T10:19:06;101387.66;;;23.44;56.91
55291;BME280;41155;39.768;2.712;2023-05-07T10:21:55;101391.72;;;23.55;57.44
55291;BME280;41155;39.768;2.712;2023-05-07T10:24:26;101384.94;;;23.61;58.40
55291;BME280;41155;39.768;2.712;2023-05-07T10:26:53;101377.50;;;23.71;57.53
55291;BME280;41155;39.768;2.712;2023-05-07T10:31:59;101385.44;;;23.89;55.69
55291;BME280;41155;39.768;2.712;2023-05-07T10:34:33;101372.28;;;23.95;57.50
55291;BME280;41155;39.768;2.712;2023-05-07T10:37:00;101374.72;;;24.05;57.28
55291;BME280;41155;39.768;2.712;2023-05-07T10:39:26;101362.34;;;24.29;56.23
55291;BME280;41155;39.768;2.712;2023-05-07T10:41:52;101368.97;;;24.54;55.65
55291;BME280;41155;39.768;2.712;2023-05-07T10:44:30;101361.91;;;24.74;54.04
55291;BME280;41155;39.768;2.712;2023-05-07T10:47:12;101366.38;;;24.87;54.01
55291;BME280;41155;39.768;2.712;2023-05-07T10:52:19;101369.69;;;24.72;53.14
55291;BME280;41155;39.768;2.712;2023-05-07T10:54:45;101366.94;;;24.72;52.21
55291;BME280;41155;39.768;2.712;2023-05-07T10:57:33;101368.44;;;24.99;51.31
55291;BME280;41155;39.768;2.712;2023-05-07T11:05:28;101376.69;;;25.37;49.49
55291;BME280;41155;39.768;2.712;2023-05-07T11:07:55;101374.06;;;25.62;48.22
55291;BME280;41155;39.768;2.712;2023-05-07T11:10:21;101355.19;;;25.64;48.57
55291;BME280;41155;39.768;2.712;2023-05-07T11:12:47;101370.78;;;25.89;47.46
55291;BME280;41155;39.768;2.712;2023-05-07T11:15:14;101357.47;;;25.62;46.80
55291;BME280;41155;39.768;2.712;2023-05-07T11:17:59;101368.88;;;25.81;45.81
55291;BME280;41155;39.768;2.712;2023-05-07T11:26:10;101357.53;;;25.53;46.71
55291;BME280;41155;39.768;2.712;2023-05-07T11:28:41;101364.28;;;25.43;47.02
55291;BME280;41155;39.768;2.712;2023-05-07T11:31:07;101368.59;;;25.32;47.56
55291;BME280;41155;39.768;2.712;2023-05-07T11:33:34;101366.31;;;25.34;47.52
55291;BME280;41155;39.768;2.712;2023-05-07T11:36:00;101370.69;;;25.35;47.61
55291;BME280;41155;39.768;2.712;2023-05-07T11:38:28;101363.19;;;25.36;47.59
55291;BME280;41155;39.768;2.712;2023-05-07T11:40:58;101367.50;;;25.24;47.84
55291;BME280;41155;39.768;2.712;2023-05-07T11:43:26;101373.78;;;25.34;47.49
55291;BME280;41155;39.768;2.712;2023-05-07T11:45:52;101377.44;;;25.46;47.00
55291;BME280;41155;39.768;2.712;2023-05-07T11:48:18;101378.84;;;25.32;47.74
55291;BME280;41155;39.768;2.712;2023-05-07T11:53:34;101385.94;;;25.12;47.83
55291;BME280;41155;39.768;2.712;2023-05-07T11:56:00;101384.28;;;25.11;47.99
55291;BME280;41155;39.768;2.712;2023-05-07T11:58:25;101384.69;;;25.00;48.30
55291;BME280;41155;39.768;2.712;2023-05-07T12:00:54;101386.81;;;24.95;48.57
55291;BME280;41155;39.768;2.712;2023-05-07T12:03:20;101388.78;;;24.94;48.49
55291;BME280;41155;39.768;2.712;2023-05-07T12:05:47;101393.50;;;24.94;48.74
55291;BME280;41155;39.768;2.712;2023-05-07T12:08:17;101384.09;;;24.86;48.60
55291;BME280;41155;39.768;2.712;2023-05-07T12:10:43;101389.16;;;24.75;48.62
55291;BME280;41155;39.768;2.712;2023-05-07T12:13:17;101392.78;;;24.67;48.89
55291;BME280;41155;39.768;2.712;2023-05-07T12:15:43;101385.63;;;24.66;48.62
55291;BME280;41155;39.768;2.712;2023-05-07T12:18:09;101389.22;;;24.67;48.05
55291;BME280;41155;39.768;2.712;2023-05-07T12:20:36;101396.06;;;24.61;47.56
55291;BME280;41155;39.768;2.712;2023-05-07T12:23:02;101391.84;;;24.54;47.85
55291;BME280;41155;39.768;2.712;2023-05-07T12:25:39;101393.63;;;24.59;48.17
55291;BME280;41155;39.768;2.712;2023-05-07T12:28:08;101381.00;;;24.23;49.71
55291;BME280;41155;39.768;2.712;2023-05-07T12:30:38;101392.69;;;24.29;49.61
55291;BME280;41155;39.768;2.712;2023-05-07T12:33:04;101384.75;;;24.27;49.54
55291;BME280;41155;39.768;2.712;2023-05-07T12:35:31;101392.38;;;24.30;50.01
55291;BME280;41155;39.768;2.712;2023-05-07T12:37:58;101401.97;;;24.24;50.10
55291;BME280;41155;39.768;2.712;2023-05-07T12:40:38;101359.00;;;23.97;49.89
55291;BME280;41155;39.768;2.712;2023-05-07T12:43:04;101391.56;;;24.21;49.80
55291;BME280;41155;39.768;2.712;2023-05-07T12:45:30;101390.13;;;24.15;49.97
55291;BME280;41155;39.768;2.712;2023-05-07T12:47:56;101368.22;;;24.19;49.67
55291;BME280;41155;39.768;2.712;2023-05-07T12:50:21;101387.53;;;24.10;49.49
55291;BME280;41155;39.768;2.712;2023-05-07T12:52:47;101390.78;;;24.12;49.79
55291;BME280;41155;39.768;2.712;2023-05-07T12:55:16;101367.59;;;23.96;49.59
55291;BME280;41155;39.768;2.712;2023-05-07T12:57:48;101385.91;;;24.18;49.55
55291;BME280;41155;39.768;2.712;2023-05-07T13:00:14;101388.34;;;24.19;49.13
55291;BME280;41155;39.768;2.712;2023-05-07T13:02:41;101390.09;;;24.24;48.83
55291;BME280;41155;39.768;2.712;2023-05-07T13:05:09;101389.16;;;24.20;49.15
55291;BME280;41155;39.768;2.712;2023-05-07T13:07:35;101389.81;;;24.17;49.72